• Join FlightAware (Why Join?)
  • Login
  • US Flag 
08:11PM EST


 

Airport Tracker/Info


-or-


 

Live Flight TrackerFlight Track Log ✈ EJA929 ✈ 20-May-2013 ✈ KOKC - KTEB

Flight Track Log - Related Links

Times and Time Zones

All times are in EDT time to prevent confusion due to time zone crossing. See the EJA929 flight status page for this flight to view local times or setup timezone preferences in your user account.

Time Position Orientation Groundspeed Altitude Reporting Facility
EDT Latitude Longitude Course Direction KTS MPH feet Rate Location/Type
03:15PM 35.3747 -97.5944 166° South 169 194 2,100  Level Fort Worth Center
03:16PM 35.3228 -97.5789 166° South 213 245 5,300 2,940 Climbing Fort Worth Center
03:18PM 35.4581 -97.3986 47° Northeast 366 421 11,900 2,580 Climbing Kansas City Center
03:19PM 35.5183 -97.2722 60° Northeast 408 470 14,000 1,980 Climbing Kansas City Center
03:20PM 35.5814 -97.1386 60° Northeast 438 504 16,000 2,040 Climbing Kansas City Center
03:21PM 35.6422 -97.0064 60° Northeast 445 512 18,200 2,040 Climbing Kansas City Center
03:22PM 35.7017 -96.8764 61° Northeast 439 505 20,200 1,920 Climbing Kansas City Center
03:23PM 35.7614 -96.7458 61° Northeast 438 504 22,200 1,560 Climbing Kansas City Center
03:24PM 35.8236 -96.6100 61° Northeast 451 519 23,400 1,020 Climbing Kansas City Center
03:25PM 35.8892 -96.4658 61° Northeast 474 545 24,400 1,020 Climbing Kansas City Center
03:26PM 35.9722 -96.2833 61° Northeast 498 573 25,600 1,020 Climbing Kansas City Center
03:27PM 36.0431 -96.1272 61° Northeast 511 588 26,600 1,140 Climbing Kansas City Center
03:28PM 36.1147 -95.9683 61° Northeast 521 600 28,000 1,380 Climbing Kansas City Center
03:29PM 36.1858 -95.8097 61° Northeast 524 603 29,500 1,440 Climbing Kansas City Center
03:30PM 36.2583 -95.6522 60° Northeast 526 605 31,000 1,440 Climbing Kansas City Center
03:31PM 36.3342 -95.4928 59° Northeast 531 611 32,500 1,380 Climbing Kansas City Center
03:32PM 36.3969 -95.3236 65° Northeast 536 617 33,900 1,140 Climbing Kansas City Center
03:33PM 36.4467 -95.1428 71° East 547 629 34,900 480 Climbing Kansas City Center
03:34PM 36.5131 -94.9369 68° East 559 643 35,000 480 Climbing Kansas City Center
03:35PM 36.5725 -94.7506 68° East 571 657 35,900 900 Climbing Kansas City Center
03:36PM 36.6325 -94.5686 68° East 571 657 36,900 960 Climbing Kansas City Center
03:37PM 36.6914 -94.3878 68° East 568 654 37,900 1,020 Climbing Kansas City Center
03:38PM 36.7606 -94.1700 68° East 564 649 39,100 1,020 Climbing Kansas City Center
03:39PM 36.8175 -93.9881 69° East 563 648 40,100 900 Climbing Kansas City Center
03:40PM 36.8789 -93.8150 66° East 554 638 41,000 420 Climbing Kansas City Center
03:42PM 36.9353 -93.6586 66° East 549 632 41,000  Level Kansas City Center
03:43PM 37.0078 -93.4450 67° East 554 638 41,000  Level Kansas City Center
03:44PM 37.0706 -93.2681 66° East 557 641 41,000  Level Kansas City Center
03:45PM 37.1333 -93.0925 66° East 554 638 41,000  Level Kansas City Center
03:46PM 37.1953 -92.9192 66° East 549 632 41,000  Level Kansas City Center
03:47PM 37.2586 -92.7442 66° East 550 633 41,000  Level Kansas City Center
03:48PM 37.3314 -92.5739 62° Northeast 554 638 41,000  Level Kansas City Center
03:49PM 37.4056 -92.4042 61° Northeast 555 639 41,000  Level Kansas City Center
03:50PM 37.4958 -92.2017 61° Northeast 556 640 41,000  Level Kansas City Center
03:51PM 37.5686 -92.0328 61° Northeast 554 638 41,000  Level Kansas City Center
03:52PM 37.6419 -91.8631 61° Northeast 554 638 41,000  Level Kansas City Center
03:53PM 37.7144 -91.6956 61° Northeast 549 632 41,000  Level Kansas City Center
03:54PM 37.7856 -91.5286 62° Northeast 543 625 41,000  Level Kansas City Center
03:55PM 37.8561 -91.3658 61° Northeast 533 613 41,000  Level Kansas City Center
03:56PM 37.9269 -91.2003 61° Northeast 533 613 41,000  Level Kansas City Center
03:57PM 37.9992 -91.0267 62° Northeast 536 617 41,000  Level Kansas City Center
03:58PM 38.0689 -90.8592 62° Northeast 538 619 41,000  Level Kansas City Center
03:59PM 38.1522 -90.6583 62° Northeast 539 620 41,000  Level Kansas City Center
04:00PM 38.2208 -90.4900 63° Northeast 539 620 41,000  Level Kansas City Center
04:01PM 38.2900 -90.3175 63° Northeast 546 628 41,000  Level Kansas City Center
04:02PM 38.3600 -90.1472 62° Northeast 550 633 41,000  Level Kansas City Center
04:03PM 38.4292 -89.9786 62° Northeast 548 631 41,000  Level Kansas City Center
04:04PM 38.5117 -89.7756 63° Northeast 547 629 41,000  Level Kansas City Center
04:05PM 38.5853 -89.5950 62° Northeast 558 642 41,000  Level Kansas City Center
04:06PM 38.6542 -89.4231 63° Northeast 546 628 41,000  Level Kansas City Center
04:07PM 38.7278 -89.2378 63° Northeast 545 627 41,000  Level Kansas City Center
04:08PM 38.7956 -89.0667 63° Northeast 541 623 41,000  Level Kansas City Center
04:09PM 38.8556 -88.9192 62° Northeast 538 619 41,000  Level Kansas City Center
04:10PM 38.9361 -88.7144 63° Northeast 537 618 41,000  Level Kansas City Center
04:11PM 38.9978 -88.5536 64° Northeast 538 619 41,000  Level Kansas City Center
04:12PM 39.0644 -88.3806 64° Northeast 538 619 41,000  Level Kansas City Center
04:13PM 39.1303 -88.2081 64° Northeast 535 616 41,000  Level Kansas City Center
04:14PM 39.1967 -88.0336 64° Northeast 537 618 41,000  Level Kansas City Center
04:15PM 39.2758 -87.8253 64° Northeast 536 617 41,000  Level Kansas City Center
04:17PM 39.3403 -87.6547 64° Northeast 528 608 41,000  Level Kansas City Center
04:18PM 39.4103 -87.4672 64° Northeast 523 602 41,000  Level Indianapolis Center
04:19PM 39.4753 -87.2964 64° Northeast 528 608 41,000  Level Indianapolis Center
04:20PM 39.5414 -87.1247 63° Northeast 532 612 41,000  Level Indianapolis Center
04:21PM 39.6194 -86.9206 64° Northeast 529 609 41,000  Level Indianapolis Center
04:22PM 39.6839 -86.7497 64° Northeast 526 605 41,000  Level Indianapolis Center
04:23PM 39.7478 -86.5794 64° Northeast 525 604 41,000  Level Indianapolis Center
04:24PM 39.8183 -86.3864 65° Northeast 529 609 41,000  Level Indianapolis Center
04:25PM 39.8792 -86.2239 64° Northeast 531 611 41,000  Level Indianapolis Center
04:26PM 39.9417 -86.0492 65° Northeast 529 609 41,000  Level Indianapolis Center
04:27PM 40.0044 -85.8758 65° Northeast 529 609 41,000  Level Indianapolis Center
04:28PM 40.0675 -85.7039 64° Northeast 528 608 41,000  Level Indianapolis Center
04:29PM 40.1417 -85.4972 65° Northeast 526 605 41,000  Level Indianapolis Center
04:30PM 40.2033 -85.3256 65° Northeast 525 604 41,000  Level Indianapolis Center
04:31PM 40.2636 -85.1544 65° Northeast 520 598 41,000  Level Indianapolis Center
04:32PM 40.3239 -84.9850 65° Northeast 517 595 41,000  Level Indianapolis Center
04:33PM 40.3872 -84.8092 65° Northeast 519 597 41,000  Level Indianapolis Center
04:34PM 40.4472 -84.6356 66° East 518 596 41,000  Level Indianapolis Center
04:35PM 40.5075 -84.4617 65° Northeast 517 595 41,000  Level Indianapolis Center
04:36PM 40.5767 -84.2583 66° East 516 594 41,000  Level Indianapolis Center
04:37PM 40.6372 -84.0831 65° Northeast 519 597 41,000  Level Indianapolis Center
04:38PM 40.6978 -83.9067 66° East 521 600 41,000  Level Indianapolis Center
04:39PM 40.7567 -83.7303 66° East 519 597 41,000  Level Indianapolis Center
04:40PM 40.8164 -83.5542 66° East 520 598 41,000  Level Indianapolis Center
04:42PM 40.8797 -83.3642 66° East 523 602 41,000  Level Indianapolis Center
04:42PM 40.9197 -83.2542 64° Northeast 520 598 41,000  Level Cleveland Center
04:43PM 40.9803 -83.0614 67° East 509 586 41,000  Level Cleveland Center
04:44PM 41.0361 -82.8900 67° East 509 586 41,000  Level Cleveland Center
04:45PM 41.0917 -82.7156 67° East 509 586 41,000  Level Cleveland Center
04:46PM 41.1489 -82.5411 66° East 509 586 41,000  Level Cleveland Center
04:47PM 41.2058 -82.3689 66° East 509 586 41,000  Level Cleveland Center
04:48PM 41.2606 -82.1961 67° East 509 586 41,000  Level Cleveland Center
04:49PM 41.3194 -82.0181 66° East 509 586 41,000  Level Cleveland Center
04:50PM 41.3733 -81.8506 67° East 509 586 41,000  Level Cleveland Center
04:51PM 41.4208 -81.6992 67° East 504 580 41,000  Level Cleveland Center
04:52PM 41.4808 -81.5089 67° East 504 580 41,000  Level Cleveland Center
04:53PM 41.5322 -81.3347 68° East 498 573 41,000  Level Cleveland Center
04:54PM 41.5833 -81.1633 68° East 493 567 41,000  Level Cleveland Center
04:55PM 41.6383 -80.9889 67° East 498 573 41,000  Level Cleveland Center
04:56PM 41.6889 -80.8194 68° East 493 567 41,000  Level Cleveland Center
04:57PM 41.7431 -80.6444 67° East 493 567 41,000  Level Cleveland Center
04:58PM 41.7972 -80.4689 67° East 493 567 41,000  Level Cleveland Center
04:59PM 41.8469 -80.2933 69° East 493 567 41,000  Level Cleveland Center
05:00PM 41.8925 -80.1397 68° East 498 573 41,000  Level Cleveland Center
05:01PM 41.9500 -79.9439 68° East 498 573 41,000  Level Cleveland Center
05:02PM 41.9486 -79.7594 91° East 477 549 41,000  Level Cleveland Center
05:03PM 41.9328 -79.5756 97° East 482 555 41,000  Level Cleveland Center
05:04PM 41.9142 -79.3889 98° East 490 564 41,000  Level Cleveland Center
05:05PM 41.8975 -79.2106 97° East 490 564 41,000  Level Cleveland Center
05:06PM 41.8786 -79.0242 98° East 495 570 41,000  Level Cleveland Center
05:07PM 41.8592 -78.8408 98° East 500 575 41,000  Level Cleveland Center
05:08PM 41.8417 -78.6572 97° East 500 575 41,000 -600 Level Cleveland Center
05:09PM 41.8239 -78.4767 97° East 500 575 39,900 -1,860 Descending Cleveland Center
05:11PM 41.7958 -78.2247 98° East 494 568 36,300 -2,340 Descending New York Center
05:12PM 41.7742 -78.0358 99° East 494 568 34,000 -1,200 Descending New York Center
05:13PM 41.7542 -77.8475 98° East 505 581 34,000  Level New York Center
05:14PM 41.7322 -77.6533 99° East 516 594 34,000  Level New York Center
05:15PM 41.7122 -77.4594 98° East 516 594 34,000  Level New York Center
05:16PM 41.6914 -77.2683 98° East 521 600 34,000  Level New York Center
05:17PM 41.6528 -77.0564 104° East 527 606 34,000  Level New York Center
05:18PM 41.6022 -76.8711 110° East 532 612 34,000 -180 Level New York Center
05:19PM 41.5617 -76.7233 110° East 532 612 33,700 -1,620 Descending New York Center
05:20PM 41.5089 -76.5275 110° East 525 604 30,800 -2,880 Descending New York Center
05:21PM 41.4542 -76.3208 109° East 525 604 27,900 -2,880 Descending New York Center
05:22PM 41.4006 -76.1311 111° Southeast 531 611 25,000 -2,820 Descending New York Center
05:23PM 41.3514 -75.9667 112° Southeast 511 588 22,300 -2,460 Descending New York Center
05:24PM 41.3156 -75.8342 110° East 491 565 20,200 -2,040 Descending New York Center
05:25PM 41.2608 -75.6506 112° Southeast 485 558 18,300 -2,100 Descending New York Center
05:26PM 41.2447 -75.4811 97° East 439 505 16,000 -2,580 Descending New York Center
05:27PM 41.2297 -75.3311 98° East 426 490 13,200 -2,400 Descending New York Center
05:28PM 41.1822 -75.2094 117° Southeast 392 451 11,200 -1,980 Descending New York Center
05:29PM 41.1311 -75.1317 131° Southeast 335 386 9,300 -2,100 Descending New York Center
05:30PM 41.0742 -75.0372 129° Southeast 303 349 7,100 -1,740 Descending New York Center
05:31PM 41.0289 -74.9628 129° Southeast 296 341 5,900 -900 Descending New York Center
05:32PM 40.9953 -74.8536 112° Southeast 286 329 5,300 -840 Descending New York Center
05:33PM 41.0003 -74.7631 86° East 269 310 4,300 -720 Descending New York Center
05:34PM 41.0039 -74.6533 87° East 269 310 3,900 -600 Descending New York Center
05:35PM 41.0069 -74.5628 87° East 269 310 3,200 -540 Descending New York Center
05:36PM 41.0103 -74.4558 88° East 269 310 2,900 -180 Descending New York Center
05:37PM 41.0153 -74.3681 86° East 269 310 2,900 60 Level New York Center
05:37PM 41.0167 -74.3000 88° East 240 276 3,000 60 Climbing New York TRACON
05:38PM 41.0167 -74.2167 90° East 233 268 3,000 -360 Level New York TRACON
05:39PM 41.0167 -74.1500 90° East 195 224 2,300 -540 Descending New York TRACON
05:40PM 41.0167 -74.0833 90° East 210 242 2,000 -180 Descending New York TRACON
05:41PM 40.9667 -74.0500 153° Southeast 186 214 2,000 -300 Level New York TRACON
05:42PM 40.9333 -74.0500 180° South 160 184 1,500 -600 Descending New York TRACON
05:43PM 40.8833 -74.0500 180° South 135 155 800 -720 Descending New York TRACON
05:45PM 40.8500 -74.0500 175° South  Level FlightAware Approximate
05:52PM 40.8501 -74.0608 175° South  Level Estimated
05:53PM 40.8501 -74.0608 175° South  Level Estimated